sensor_id;sensor_type;location;lat;lon;timestamp;P1;durP1;ratioP1;P2;durP2;ratioP2
25639;SDS011;13497;48.322;16.204;2022-09-17T00:00:40;9.90;;;1.15;;
25639;SDS011;13497;48.322;16.204;2022-09-17T00:03:07;3.25;;;0.90;;
25639;SDS011;13497;48.322;16.204;2022-09-17T00:05:34;1.65;;;1.10;;
25639;SDS011;13497;48.322;16.204;2022-09-17T00:08:04;0.88;;;0.75;;
25639;SDS011;13497;48.322;16.204;2022-09-17T00:10:32;0.68;;;0.60;;
25639;SDS011;13497;48.322;16.204;2022-09-17T00:13:02;0.75;;;0.60;;
25639;SDS011;13497;48.322;16.204;2022-09-17T00:15:28;1.08;;;0.77;;
25639;SDS011;13497;48.322;16.204;2022-09-17T00:17:54;5.25;;;0.90;;
25639;SDS011;13497;48.322;16.204;2022-09-17T00:20:22;2.60;;;1.20;;
25639;SDS011;13497;48.322;16.204;2022-09-17T00:22:51;0.70;;;0.70;;
25639;SDS011;13497;48.322;16.204;2022-09-17T00:27:43;1.35;;;0.98;;
25639;SDS011;13497;48.322;16.204;2022-09-17T00:30:10;2.38;;;1.33;;
25639;SDS011;13497;48.322;16.204;2022-09-17T00:32:36;1.40;;;0.85;;
25639;SDS011;13497;48.322;16.204;2022-09-17T00:35:01;1.10;;;0.90;;
25639;SDS011;13497;48.322;16.204;2022-09-17T00:37:28;2.22;;;1.17;;
25639;SDS011;13497;48.322;16.204;2022-09-17T00:39:53;1.33;;;1.07;;
25639;SDS011;13497;48.322;16.204;2022-09-17T00:42:19;1.20;;;1.00;;
25639;SDS011;13497;48.322;16.204;2022-09-17T00:44:50;0.95;;;0.85;;
25639;SDS011;13497;48.322;16.204;2022-09-17T00:49:43;0.80;;;0.70;;
25639;SDS011;13497;48.322;16.204;2022-09-17T00:52:11;1.00;;;0.80;;
25639;SDS011;13497;48.322;16.204;2022-09-17T00:54:40;1.13;;;1.00;;
25639;SDS011;13497;48.322;16.204;2022-09-17T00:57:09;1.60;;;1.00;;
25639;SDS011;13497;48.322;16.204;2022-09-17T00:59:35;5.00;;;1.08;;
25639;SDS011;13497;48.322;16.204;2022-09-17T01:02:01;3.15;;;1.35;;
25639;SDS011;13497;48.322;16.204;2022-09-17T01:04:28;2.20;;;1.17;;
25639;SDS011;13497;48.322;16.204;2022-09-17T01:28:48;1.83;;;0.73;;
25639;SDS011;13497;48.322;16.204;2022-09-17T01:31:21;1.00;;;0.70;;
25639;SDS011;13497;48.322;16.204;2022-09-17T01:34:07;0.80;;;0.80;;
25639;SDS011;13497;48.322;16.204;2022-09-17T01:42:08;3.22;;;0.80;;
25639;SDS011;13497;48.322;16.204;2022-09-17T01:44:59;1.05;;;0.80;;
25639;SDS011;13497;48.322;16.204;2022-09-17T01:47:34;0.73;;;0.63;;
25639;SDS011;13497;48.322;16.204;2022-09-17T01:50:06;0.52;;;0.52;;
25639;SDS011;13497;48.322;16.204;2022-09-17T01:52:34;0.40;;;0.40;;
25639;SDS011;13497;48.322;16.204;2022-09-17T01:55:10;1.08;;;0.65;;
25639;SDS011;13497;48.322;16.204;2022-09-17T01:57:47;1.73;;;0.73;;
25639;SDS011;13497;48.322;16.204;2022-09-17T02:00:20;1.40;;;0.70;;
25639;SDS011;13497;48.322;16.204;2022-09-17T02:02:47;1.05;;;0.88;;
25639;SDS011;13497;48.322;16.204;2022-09-17T02:05:18;0.60;;;0.60;;
25639;SDS011;13497;48.322;16.204;2022-09-17T02:07:50;1.00;;;0.80;;
25639;SDS011;13497;48.322;16.204;2022-09-17T02:10:21;1.00;;;0.70;;
25639;SDS011;13497;48.322;16.204;2022-09-17T02:12:55;0.85;;;0.70;;
25639;SDS011;13497;48.322;16.204;2022-09-17T02:15:30;0.95;;;0.88;;
25639;SDS011;13497;48.322;16.204;2022-09-17T02:20:40;7.25;;;0.80;;
25639;SDS011;13497;48.322;16.204;2022-09-17T02:23:17;1.45;;;0.60;;
25639;SDS011;13497;48.322;16.204;2022-09-17T02:26:10;0.95;;;0.75;;
25639;SDS011;13497;48.322;16.204;2022-09-17T02:31:30;1.33;;;1.23;;
25639;SDS011;13497;48.322;16.204;2022-09-17T02:33:56;1.33;;;0.93;;
25639;SDS011;13497;48.322;16.204;2022-09-17T02:36:32;0.70;;;0.70;;
25639;SDS011;13497;48.322;16.204;2022-09-17T02:38:59;1.33;;;1.23;;
25639;SDS011;13497;48.322;16.204;2022-09-17T02:55:06;1.20;;;0.82;;
25639;SDS011;13497;48.322;16.204;2022-09-17T03:00:24;0.98;;;0.93;;
25639;SDS011;13497;48.322;16.204;2022-09-17T03:05:28;1.67;;;1.10;;
25639;SDS011;13497;48.322;16.204;2022-09-17T03:08:18;2.08;;;1.08;;
25639;SDS011;13497;48.322;16.204;2022-09-17T03:13:54;1.95;;;1.25;;
25639;SDS011;13497;48.322;16.204;2022-09-17T03:16:19;1.33;;;0.88;;
25639;SDS011;13497;48.322;16.204;2022-09-17T03:18:45;1.63;;;1.00;;
25639;SDS011;13497;48.322;16.204;2022-09-17T03:21:11;0.60;;;0.60;;
25639;SDS011;13497;48.322;16.204;2022-09-17T03:23:36;1.33;;;1.03;;
25639;SDS011;13497;48.322;16.204;2022-09-17T03:26:03;2.70;;;0.90;;
25639;SDS011;13497;48.322;16.204;2022-09-17T03:28:29;4.63;;;1.00;;
25639;SDS011;13497;48.322;16.204;2022-09-17T03:30:54;0.93;;;0.83;;
25639;SDS011;13497;48.322;16.204;2022-09-17T03:33:20;1.37;;;0.97;;
25639;SDS011;13497;48.322;16.204;2022-09-17T03:35:46;1.40;;;1.30;;
25639;SDS011;13497;48.322;16.204;2022-09-17T03:38:12;1.20;;;0.83;;
25639;SDS011;13497;48.322;16.204;2022-09-17T03:40:37;1.50;;;0.82;;
25639;SDS011;13497;48.322;16.204;2022-09-17T03:45:30;1.13;;;0.85;;
25639;SDS011;13497;48.322;16.204;2022-09-17T03:48:01;1.45;;;0.90;;
25639;SDS011;13497;48.322;16.204;2022-09-17T03:50:26;4.77;;;1.83;;
25639;SDS011;13497;48.322;16.204;2022-09-17T03:52:52;1.90;;;1.33;;
25639;SDS011;13497;48.322;16.204;2022-09-17T03:55:18;1.43;;;1.33;;
25639;SDS011;13497;48.322;16.204;2022-09-17T03:57:43;1.10;;;1.00;;
25639;SDS011;13497;48.322;16.204;2022-09-17T04:00:09;1.37;;;1.13;;
25639;SDS011;13497;48.322;16.204;2022-09-17T04:02:36;2.50;;;1.70;;
25639;SDS011;13497;48.322;16.204;2022-09-17T04:05:02;0.90;;;0.90;;
25639;SDS011;13497;48.322;16.204;2022-09-17T04:07:31;1.00;;;0.95;;
25639;SDS011;13497;48.322;16.204;2022-09-17T04:09:56;2.05;;;1.25;;
25639;SDS011;13497;48.322;16.204;2022-09-17T04:12:22;1.50;;;0.93;;
25639;SDS011;13497;48.322;16.204;2022-09-17T04:14:48;1.20;;;1.00;;
25639;SDS011;13497;48.322;16.204;2022-09-17T04:17:13;2.03;;;1.33;;
25639;SDS011;13497;48.322;16.204;2022-09-17T04:19:45;1.63;;;1.23;;
25639;SDS011;13497;48.322;16.204;2022-09-17T04:22:11;1.83;;;1.40;;
25639;SDS011;13497;48.322;16.204;2022-09-17T04:24:36;2.00;;;1.27;;
25639;SDS011;13497;48.322;16.204;2022-09-17T04:27:02;1.03;;;0.87;;
25639;SDS011;13497;48.322;16.204;2022-09-17T04:29:28;1.13;;;1.00;;
25639;SDS011;13497;48.322;16.204;2022-09-17T04:31:54;1.60;;;0.83;;
25639;SDS011;13497;48.322;16.204;2022-09-17T04:34:19;7.87;;;1.60;;
25639;SDS011;13497;48.322;16.204;2022-09-17T04:36:45;1.17;;;1.00;;
25639;SDS011;13497;48.322;16.204;2022-09-17T04:39:10;2.23;;;1.30;;
25639;SDS011;13497;48.322;16.204;2022-09-17T04:41:36;3.80;;;1.10;;
25639;SDS011;13497;48.322;16.204;2022-09-17T04:44:02;1.17;;;1.07;;
25639;SDS011;13497;48.322;16.204;2022-09-17T04:46:28;1.43;;;1.33;;
25639;SDS011;13497;48.322;16.204;2022-09-17T04:48:54;1.67;;;1.27;;
25639;SDS011;13497;48.322;16.204;2022-09-17T04:51:19;1.70;;;1.60;;
25639;SDS011;13497;48.322;16.204;2022-09-17T04:53:45;2.47;;;1.30;;
25639;SDS011;13497;48.322;16.204;2022-09-17T04:56:10;2.33;;;1.90;;
25639;SDS011;13497;48.322;16.204;2022-09-17T04:58:36;2.27;;;1.40;;
25639;SDS011;13497;48.322;16.204;2022-09-17T05:01:02;3.40;;;1.20;;
25639;SDS011;13497;48.322;16.204;2022-09-17T05:03:27;1.87;;;1.63;;
25639;SDS011;13497;48.322;16.204;2022-09-17T05:05:53;1.67;;;1.40;;
25639;SDS011;13497;48.322;16.204;2022-09-17T05:08:19;1.07;;;1.00;;
25639;SDS011;13497;48.322;16.204;2022-09-17T05:10:46;1.80;;;1.30;;
25639;SDS011;13497;48.322;16.204;2022-09-17T05:13:16;1.42;;;1.30;;
25639;SDS011;13497;48.322;16.204;2022-09-17T05:15:42;3.97;;;1.10;;
25639;SDS011;13497;48.322;16.204;2022-09-17T05:18:09;1.85;;;1.48;;
25639;SDS011;13497;48.322;16.204;2022-09-17T05:20:34;1.80;;;1.07;;
25639;SDS011;13497;48.322;16.204;2022-09-17T05:23:00;1.53;;;1.27;;
25639;SDS011;13497;48.322;16.204;2022-09-17T05:25:26;2.20;;;1.50;;
25639;SDS011;13497;48.322;16.204;2022-09-17T05:27:52;2.00;;;1.00;;
25639;SDS011;13497;48.322;16.204;2022-09-17T05:30:18;2.13;;;1.38;;
25639;SDS011;13497;48.322;16.204;2022-09-17T05:32:44;1.17;;;1.00;;
25639;SDS011;13497;48.322;16.204;2022-09-17T05:35:10;2.20;;;1.27;;
25639;SDS011;13497;48.322;16.204;2022-09-17T05:37:35;1.60;;;1.50;;
25639;SDS011;13497;48.322;16.204;2022-09-17T05:40:02;2.20;;;1.45;;
25639;SDS011;13497;48.322;16.204;2022-09-17T05:42:33;1.77;;;1.33;;
25639;SDS011;13497;48.322;16.204;2022-09-17T05:44:59;1.42;;;1.33;;
25639;SDS011;13497;48.322;16.204;2022-09-17T05:47:24;1.47;;;0.97;;
25639;SDS011;13497;48.322;16.204;2022-09-17T05:49:50;2.00;;;1.57;;
25639;SDS011;13497;48.322;16.204;2022-09-17T05:52:16;1.63;;;1.37;;
25639;SDS011;13497;48.322;16.204;2022-09-17T05:54:41;3.67;;;1.50;;
25639;SDS011;13497;48.322;16.204;2022-09-17T05:57:07;2.03;;;1.33;;
25639;SDS011;13497;48.322;16.204;2022-09-17T05:59:33;2.10;;;1.70;;
25639;SDS011;13497;48.322;16.204;2022-09-17T06:04:25;2.22;;;1.85;;
25639;SDS011;13497;48.322;16.204;2022-09-17T06:06:51;1.30;;;1.20;;
25639;SDS011;13497;48.322;16.204;2022-09-17T06:09:16;7.73;;;1.40;;
25639;SDS011;13497;48.322;16.204;2022-09-17T06:11:42;1.67;;;1.40;;
25639;SDS011;13497;48.322;16.204;2022-09-17T06:14:08;1.38;;;1.27;;
25639;SDS011;13497;48.322;16.204;2022-09-17T06:16:34;1.77;;;1.37;;
25639;SDS011;13497;48.322;16.204;2022-09-17T06:19:00;3.33;;;1.23;;
25639;SDS011;13497;48.322;16.204;2022-09-17T06:21:26;1.52;;;1.17;;
25639;SDS011;13497;48.322;16.204;2022-09-17T06:23:51;2.63;;;1.57;;
25639;SDS011;13497;48.322;16.204;2022-09-17T06:26:17;0.70;;;0.70;;
25639;SDS011;13497;48.322;16.204;2022-09-17T06:28:43;2.00;;;0.77;;
25639;SDS011;13497;48.322;16.204;2022-09-17T06:31:09;1.60;;;1.20;;
25639;SDS011;13497;48.322;16.204;2022-09-17T06:33:36;0.80;;;0.75;;
25639;SDS011;13497;48.322;16.204;2022-09-17T06:36:03;1.83;;;1.48;;
25639;SDS011;13497;48.322;16.204;2022-09-17T06:38:31;0.70;;;0.70;;
25639;SDS011;13497;48.322;16.204;2022-09-17T06:40:59;0.88;;;0.80;;
25639;SDS011;13497;48.322;16.204;2022-09-17T06:43:25;1.17;;;1.02;;
25639;SDS011;13497;48.322;16.204;2022-09-17T06:45:52;1.95;;;1.05;;
25639;SDS011;13497;48.322;16.204;2022-09-17T06:48:19;3.70;;;2.03;;
25639;SDS011;13497;48.322;16.204;2022-09-17T06:53:11;1.85;;;1.13;;
25639;SDS011;13497;48.322;16.204;2022-09-17T06:55:36;2.20;;;1.10;;
25639;SDS011;13497;48.322;16.204;2022-09-17T06:58:02;1.17;;;1.03;;
25639;SDS011;13497;48.322;16.204;2022-09-17T07:00:28;2.37;;;1.30;;
25639;SDS011;13497;48.322;16.204;2022-09-17T07:02:57;0.80;;;0.73;;
25639;SDS011;13497;48.322;16.204;2022-09-17T07:05:27;1.10;;;0.82;;
25639;SDS011;13497;48.322;16.204;2022-09-17T07:07:53;1.15;;;1.00;;
25639;SDS011;13497;48.322;16.204;2022-09-17T07:10:22;5.80;;;1.67;;
25639;SDS011;13497;48.322;16.204;2022-09-17T07:12:48;1.15;;;0.85;;
25639;SDS011;13497;48.322;16.204;2022-09-17T07:15:14;1.77;;;1.23;;
25639;SDS011;13497;48.322;16.204;2022-09-17T07:17:40;1.70;;;1.13;;
25639;SDS011;13497;48.322;16.204;2022-09-17T07:20:08;0.63;;;0.60;;
25639;SDS011;13497;48.322;16.204;2022-09-17T07:22:35;1.27;;;1.17;;
25639;SDS011;13497;48.322;16.204;2022-09-17T07:25:01;0.88;;;0.85;;
25639;SDS011;13497;48.322;16.204;2022-09-17T07:27:27;1.50;;;0.97;;
25639;SDS011;13497;48.322;16.204;2022-09-17T07:32:19;1.13;;;0.80;;
25639;SDS011;13497;48.322;16.204;2022-09-17T07:34:45;1.30;;;1.20;;
25639;SDS011;13497;48.322;16.204;2022-09-17T07:37:10;1.47;;;1.00;;
25639;SDS011;13497;48.322;16.204;2022-09-17T07:39:36;1.40;;;1.10;;
25639;SDS011;13497;48.322;16.204;2022-09-17T07:42:02;0.60;;;0.60;;
25639;SDS011;13497;48.322;16.204;2022-09-17T07:44:31;1.10;;;0.88;;
25639;SDS011;13497;48.322;16.204;2022-09-17T07:46:56;1.20;;;0.93;;
25639;SDS011;13497;48.322;16.204;2022-09-17T07:49:22;1.17;;;1.03;;
25639;SDS011;13497;48.322;16.204;2022-09-17T07:51:48;1.00;;;0.90;;
25639;SDS011;13497;48.322;16.204;2022-09-17T07:54:13;1.13;;;1.03;;
25639;SDS011;13497;48.322;16.204;2022-09-17T07:56:41;1.50;;;0.97;;
25639;SDS011;13497;48.322;16.204;2022-09-17T07:59:10;0.80;;;0.60;;
25639;SDS011;13497;48.322;16.204;2022-09-17T08:01:36;1.85;;;1.00;;
25639;SDS011;13497;48.322;16.204;2022-09-17T08:04:04;0.80;;;0.77;;
25639;SDS011;13497;48.322;16.204;2022-09-17T08:06:30;1.23;;;0.90;;
25639;SDS011;13497;48.322;16.204;2022-09-17T08:08:57;0.73;;;0.63;;
25639;SDS011;13497;48.322;16.204;2022-09-17T08:11:26;4.13;;;0.80;;
25639;SDS011;13497;48.322;16.204;2022-09-17T08:13:53;0.85;;;0.85;;
25639;SDS011;13497;48.322;16.204;2022-09-17T08:16:20;1.25;;;0.68;;
25639;SDS011;13497;48.322;16.204;2022-09-17T08:18:47;1.35;;;0.60;;
25639;SDS011;13497;48.322;16.204;2022-09-17T08:21:14;0.65;;;0.45;;
25639;SDS011;13497;48.322;16.204;2022-09-17T08:23:42;0.57;;;0.57;;
25639;SDS011;13497;48.322;16.204;2022-09-17T08:26:21;0.73;;;0.60;;
25639;SDS011;13497;48.322;16.204;2022-09-17T08:28:49;0.60;;;0.40;;
25639;SDS011;13497;48.322;16.204;2022-09-17T08:31:19;0.32;;;0.30;;
25639;SDS011;13497;48.322;16.204;2022-09-17T08:33:45;0.30;;;0.30;;
25639;SDS011;13497;48.322;16.204;2022-09-17T08:36:12;0.30;;;0.20;;
25639;SDS011;13497;48.322;16.204;2022-09-17T08:38:39;0.30;;;0.30;;
25639;SDS011;13497;48.322;16.204;2022-09-17T08:41:13;0.20;;;0.20;;
25639;SDS011;13497;48.322;16.204;2022-09-17T08:46:15;0.63;;;0.50;;
25639;SDS011;13497;48.322;16.204;2022-09-17T08:48:42;0.20;;;0.20;;
25639;SDS011;13497;48.322;16.204;2022-09-17T08:51:32;0.22;;;0.17;;
25639;SDS011;13497;48.322;16.204;2022-09-17T08:59:57;0.28;;;0.20;;
25639;SDS011;13497;48.322;16.204;2022-09-17T09:05:11;0.40;;;0.40;;
25639;SDS011;13497;48.322;16.204;2022-09-17T09:07:46;1.95;;;0.57;;
25639;SDS011;13497;48.322;16.204;2022-09-17T09:10:18;0.20;;;0.20;;
25639;SDS011;13497;48.322;16.204;2022-09-17T09:12:52;0.10;;;0.10;;
25639;SDS011;13497;48.322;16.204;2022-09-17T09:17:54;0.10;;;0.10;;
25639;SDS011;13497;48.322;16.204;2022-09-17T09:20:38;0.10;;;0.10;;
25639;SDS011;13497;48.322;16.204;2022-09-17T09:23:39;0.22;;;0.22;;
25639;SDS011;13497;48.322;16.204;2022-09-17T09:26:12;0.20;;;0.20;;
25639;SDS011;13497;48.322;16.204;2022-09-17T09:31:26;0.40;;;0.37;;
25639;SDS011;13497;48.322;16.204;2022-09-17T09:34:18;0.57;;;0.30;;
25639;SDS011;13497;48.322;16.204;2022-09-17T09:36:44;0.20;;;0.20;;
25639;SDS011;13497;48.322;16.204;2022-09-17T09:41:43;0.32;;;0.28;;
25639;SDS011;13497;48.322;16.204;2022-09-17T09:44:15;0.43;;;0.20;;
25639;SDS011;13497;48.322;16.204;2022-09-17T09:52:11;0.52;;;0.40;;
25639;SDS011;13497;48.322;16.204;2022-09-17T09:57:38;2.92;;;0.60;;
25639;SDS011;13497;48.322;16.204;2022-09-17T10:02:51;0.70;;;0.65;;
25639;SDS011;13497;48.322;16.204;2022-09-17T10:05:24;1.20;;;0.90;;
25639;SDS011;13497;48.322;16.204;2022-09-17T10:07:49;1.50;;;0.67;;
25639;SDS011;13497;48.322;16.204;2022-09-17T10:10:15;0.30;;;0.30;;
25639;SDS011;13497;48.322;16.204;2022-09-17T10:13:29;0.20;;;0.20;;
25639;SDS011;13497;48.322;16.204;2022-09-17T10:16:20;0.50;;;0.47;;
25639;SDS011;13497;48.322;16.204;2022-09-17T10:24:34;0.40;;;0.38;;
25639;SDS011;13497;48.322;16.204;2022-09-17T10:27:03;2.00;;;0.60;;
25639;SDS011;13497;48.322;16.204;2022-09-17T10:29:34;0.40;;;0.40;;
25639;SDS011;13497;48.322;16.204;2022-09-17T10:32:00;1.87;;;1.10;;
25639;SDS011;13497;48.322;16.204;2022-09-17T10:34:30;1.58;;;0.68;;
25639;SDS011;13497;48.322;16.204;2022-09-17T10:36:57;1.27;;;0.50;;
25639;SDS011;13497;48.322;16.204;2022-09-17T10:42:16;1.00;;;0.35;;
25639;SDS011;13497;48.322;16.204;2022-09-17T10:47:21;0.82;;;0.40;;
25639;SDS011;13497;48.322;16.204;2022-09-17T11:10:57;1.50;;;0.50;;
25639;SDS011;13497;48.322;16.204;2022-09-17T11:16:04;2.30;;;0.63;;
25639;SDS011;13497;48.322;16.204;2022-09-17T11:37:39;0.40;;;0.40;;
25639;SDS011;13497;48.322;16.204;2022-09-17T11:43:03;0.30;;;0.30;;
25639;SDS011;13497;48.322;16.204;2022-09-17T11:45:56;2.72;;;0.43;;
25639;SDS011;13497;48.322;16.204;2022-09-17T11:48:44;1.80;;;0.73;;
25639;SDS011;13497;48.322;16.204;2022-09-17T11:51:30;1.15;;;0.60;;
25639;SDS011;13497;48.322;16.204;2022-09-17T11:54:07;0.45;;;0.30;;
25639;SDS011;13497;48.322;16.204;2022-09-17T11:56:59;0.40;;;0.30;;
25639;SDS011;13497;48.322;16.204;2022-09-17T12:05:17;0.30;;;0.30;;
25639;SDS011;13497;48.322;16.204;2022-09-17T12:08:33;0.40;;;0.28;;
25639;SDS011;13497;48.322;16.204;2022-09-17T12:11:33;0.20;;;0.20;;
25639;SDS011;13497;48.322;16.204;2022-09-17T12:14:08;0.55;;;0.50;;
25639;SDS011;13497;48.322;16.204;2022-09-17T12:16:45;1.77;;;0.60;;
25639;SDS011;13497;48.322;16.204;2022-09-17T12:21:58;0.20;;;0.20;;
25639;SDS011;13497;48.322;16.204;2022-09-17T12:24:30;0.70;;;0.45;;
25639;SDS011;13497;48.322;16.204;2022-09-17T12:29:42;1.63;;;0.60;;
25639;SDS011;13497;48.322;16.204;2022-09-17T12:37:34;0.88;;;0.60;;
25639;SDS011;13497;48.322;16.204;2022-09-17T12:40:38;0.65;;;0.47;;
25639;SDS011;13497;48.322;16.204;2022-09-17T12:48:31;1.90;;;0.60;;
25639;SDS011;13497;48.322;16.204;2022-09-17T12:54:23;0.30;;;0.30;;
25639;SDS011;13497;48.322;16.204;2022-09-17T12:59:29;0.30;;;0.30;;
25639;SDS011;13497;48.322;16.204;2022-09-17T13:02:10;0.60;;;0.60;;
25639;SDS011;13497;48.322;16.204;2022-09-17T13:04:49;0.45;;;0.45;;
25639;SDS011;13497;48.322;16.204;2022-09-17T13:12:58;0.88;;;0.40;;
25639;SDS011;13497;48.322;16.204;2022-09-17T13:15:44;1.33;;;0.43;;
25639;SDS011;13497;48.322;16.204;2022-09-17T13:18:28;0.65;;;0.47;;
25639;SDS011;13497;48.322;16.204;2022-09-17T13:21:00;0.30;;;0.30;;
25639;SDS011;13497;48.322;16.204;2022-09-17T13:23:48;0.35;;;0.30;;
25639;SDS011;13497;48.322;16.204;2022-09-17T13:26:20;0.22;;;0.22;;
25639;SDS011;13497;48.322;16.204;2022-09-17T13:28:57;0.90;;;0.52;;
25639;SDS011;13497;48.322;16.204;2022-09-17T13:34:03;2.05;;;0.60;;
25639;SDS011;13497;48.322;16.204;2022-09-17T13:36:54;1.05;;;0.55;;
25639;SDS011;13497;48.322;16.204;2022-09-17T13:39:45;0.40;;;0.40;;
25639;SDS011;13497;48.322;16.204;2022-09-17T13:45:08;0.50;;;0.40;;
25639;SDS011;13497;48.322;16.204;2022-09-17T13:47:39;1.40;;;0.63;;
25639;SDS011;13497;48.322;16.204;2022-09-17T13:52:53;0.32;;;0.32;;
25639;SDS011;13497;48.322;16.204;2022-09-17T13:58:03;0.55;;;0.45;;
25639;SDS011;13497;48.322;16.204;2022-09-17T14:00:47;2.55;;;0.50;;
25639;SDS011;13497;48.322;16.204;2022-09-17T14:16:33;2.88;;;0.88;;
25639;SDS011;13497;48.322;16.204;2022-09-17T14:21:40;3.20;;;0.60;;
25639;SDS011;13497;48.322;16.204;2022-09-17T14:32:38;0.52;;;0.30;;
25639;SDS011;13497;48.322;16.204;2022-09-17T14:35:42;0.45;;;0.30;;
25639;SDS011;13497;48.322;16.204;2022-09-17T14:40:45;2.03;;;0.70;;
25639;SDS011;13497;48.322;16.204;2022-09-17T14:43:57;1.02;;;0.68;;
25639;SDS011;13497;48.322;16.204;2022-09-17T14:48:48;0.90;;;0.40;;
25639;SDS011;13497;48.322;16.204;2022-09-17T14:54:05;0.82;;;0.68;;
25639;SDS011;13497;48.322;16.204;2022-09-17T14:56:47;0.43;;;0.35;;
25639;SDS011;13497;48.322;16.204;2022-09-17T15:02:34;0.35;;;0.32;;
25639;SDS011;13497;48.322;16.204;2022-09-17T15:07:42;0.20;;;0.20;;
25639;SDS011;13497;48.322;16.204;2022-09-17T15:10:10;0.20;;;0.20;;
25639;SDS011;13497;48.322;16.204;2022-09-17T15:12:38;0.32;;;0.32;;
25639;SDS011;13497;48.322;16.204;2022-09-17T15:15:04;0.15;;;0.15;;
25639;SDS011;13497;48.322;16.204;2022-09-17T15:19:57;0.50;;;0.20;;
25639;SDS011;13497;48.322;16.204;2022-09-17T15:22:28;0.45;;;0.20;;
25639;SDS011;13497;48.322;16.204;2022-09-17T15:25:03;0.20;;;0.20;;
25639;SDS011;13497;48.322;16.204;2022-09-17T15:27:38;0.88;;;0.28;;
25639;SDS011;13497;48.322;16.204;2022-09-17T15:32:52;0.10;;;0.10;;
25639;SDS011;13497;48.322;16.204;2022-09-17T15:35:28;0.30;;;0.28;;
25639;SDS011;13497;48.322;16.204;2022-09-17T15:37:56;0.30;;;0.15;;
25639;SDS011;13497;48.322;16.204;2022-09-17T15:40:32;0.57;;;0.20;;
25639;SDS011;13497;48.322;16.204;2022-09-17T15:45:53;0.20;;;0.20;;
25639;SDS011;13497;48.322;16.204;2022-09-17T15:51:01;0.20;;;0.10;;
25639;SDS011;13497;48.322;16.204;2022-09-17T15:53:31;0.25;;;0.10;;
25639;SDS011;13497;48.322;16.204;2022-09-17T16:08:47;0.00;;;0.00;;
25639;SDS011;13497;48.322;16.204;2022-09-17T16:11:17;0.15;;;0.10;;
25639;SDS011;13497;48.322;16.204;2022-09-17T16:13:44;0.40;;;0.20;;
25639;SDS011;13497;48.322;16.204;2022-09-17T16:18:41;0.00;;;0.00;;
25639;SDS011;13497;48.322;16.204;2022-09-17T16:21:13;0.10;;;0.10;;
25639;SDS011;13497;48.322;16.204;2022-09-17T16:23:39;1.20;;;0.55;;
25639;SDS011;13497;48.322;16.204;2022-09-17T16:26:05;0.85;;;0.08;;
25639;SDS011;13497;48.322;16.204;2022-09-17T16:28:34;0.15;;;0.10;;
25639;SDS011;13497;48.322;16.204;2022-09-17T16:31:00;0.10;;;0.10;;
25639;SDS011;13497;48.322;16.204;2022-09-17T16:33:26;0.20;;;0.20;;
25639;SDS011;13497;48.322;16.204;2022-09-17T16:35:55;0.40;;;0.40;;
25639;SDS011;13497;48.322;16.204;2022-09-17T16:38:21;0.20;;;0.20;;
25639;SDS011;13497;48.322;16.204;2022-09-17T16:40:47;0.83;;;0.20;;
25639;SDS011;13497;48.322;16.204;2022-09-17T16:43:13;0.23;;;0.20;;
25639;SDS011;13497;48.322;16.204;2022-09-17T16:45:39;0.40;;;0.20;;
25639;SDS011;13497;48.322;16.204;2022-09-17T16:48:05;0.13;;;0.10;;
25639;SDS011;13497;48.322;16.204;2022-09-17T16:50:31;0.08;;;0.08;;
25639;SDS011;13497;48.322;16.204;2022-09-17T16:52:58;0.60;;;0.28;;
25639;SDS011;13497;48.322;16.204;2022-09-17T16:55:24;0.20;;;0.20;;
25639;SDS011;13497;48.322;16.204;2022-09-17T16:57:50;0.50;;;0.17;;
25639;SDS011;13497;48.322;16.204;2022-09-17T17:00:16;0.22;;;0.15;;
25639;SDS011;13497;48.322;16.204;2022-09-17T17:02:50;0.10;;;0.10;;
25639;SDS011;13497;48.322;16.204;2022-09-17T17:05:19;0.30;;;0.10;;
25639;SDS011;13497;48.322;16.204;2022-09-17T17:07:45;0.77;;;0.30;;
25639;SDS011;13497;48.322;16.204;2022-09-17T17:10:11;0.20;;;0.20;;
25639;SDS011;13497;48.322;16.204;2022-09-17T17:12:37;0.10;;;0.00;;
25639;SDS011;13497;48.322;16.204;2022-09-17T17:15:03;0.20;;;0.20;;
25639;SDS011;13497;48.322;16.204;2022-09-17T17:17:33;0.10;;;0.10;;
25639;SDS011;13497;48.322;16.204;2022-09-17T17:20:00;0.22;;;0.10;;
25639;SDS011;13497;48.322;16.204;2022-09-17T17:22:32;1.75;;;0.40;;
25639;SDS011;13497;48.322;16.204;2022-09-17T17:24:58;0.43;;;0.30;;
25639;SDS011;13497;48.322;16.204;2022-09-17T17:27:24;0.10;;;0.10;;
25639;SDS011;13497;48.322;16.204;2022-09-17T17:29:49;0.13;;;0.13;;
25639;SDS011;13497;48.322;16.204;2022-09-17T17:32:15;0.35;;;0.10;;
25639;SDS011;13497;48.322;16.204;2022-09-17T17:34:41;0.33;;;0.30;;
25639;SDS011;13497;48.322;16.204;2022-09-17T17:37:07;0.07;;;0.07;;
25639;SDS011;13497;48.322;16.204;2022-09-17T17:39:32;0.40;;;0.40;;
25639;SDS011;13497;48.322;16.204;2022-09-17T17:41:58;0.10;;;0.10;;
25639;SDS011;13497;48.322;16.204;2022-09-17T17:44:23;0.43;;;0.30;;
25639;SDS011;13497;48.322;16.204;2022-09-17T17:46:49;0.20;;;0.13;;
25639;SDS011;13497;48.322;16.204;2022-09-17T17:49:15;0.20;;;0.20;;
25639;SDS011;13497;48.322;16.204;2022-09-17T17:51:41;0.30;;;0.30;;
25639;SDS011;13497;48.322;16.204;2022-09-17T17:54:06;0.55;;;0.20;;
25639;SDS011;13497;48.322;16.204;2022-09-17T17:56:32;0.10;;;0.10;;
25639;SDS011;13497;48.322;16.204;2022-09-17T17:58:58;0.20;;;0.10;;
25639;SDS011;13497;48.322;16.204;2022-09-17T18:01:25;0.20;;;0.20;;
25639;SDS011;13497;48.322;16.204;2022-09-17T18:03:56;0.20;;;0.20;;
25639;SDS011;13497;48.322;16.204;2022-09-17T18:06:24;0.60;;;0.20;;
25639;SDS011;13497;48.322;16.204;2022-09-17T18:08:50;0.68;;;0.50;;
25639;SDS011;13497;48.322;16.204;2022-09-17T18:11:16;1.52;;;0.47;;
25639;SDS011;13497;48.322;16.204;2022-09-17T18:13:42;0.40;;;0.27;;
25639;SDS011;13497;48.322;16.204;2022-09-17T18:16:09;0.23;;;0.23;;
25639;SDS011;13497;48.322;16.204;2022-09-17T18:18:38;0.40;;;0.30;;
25639;SDS011;13497;48.322;16.204;2022-09-17T18:21:06;0.82;;;0.82;;
25639;SDS011;13497;48.322;16.204;2022-09-17T18:23:34;0.20;;;0.10;;
25639;SDS011;13497;48.322;16.204;2022-09-17T18:26:03;0.20;;;0.20;;
25639;SDS011;13497;48.322;16.204;2022-09-17T18:28:32;0.20;;;0.20;;
25639;SDS011;13497;48.322;16.204;2022-09-17T18:33:59;0.20;;;0.20;;
25639;SDS011;13497;48.322;16.204;2022-09-17T18:36:35;0.20;;;0.15;;
25639;SDS011;13497;48.322;16.204;2022-09-17T18:41:36;0.17;;;0.17;;
25639;SDS011;13497;48.322;16.204;2022-09-17T18:44:04;0.10;;;0.10;;
25639;SDS011;13497;48.322;16.204;2022-09-17T18:46:31;0.52;;;0.28;;
25639;SDS011;13497;48.322;16.204;2022-09-17T18:48:57;0.10;;;0.10;;
25639;SDS011;13497;48.322;16.204;2022-09-17T18:53:50;0.20;;;0.20;;
25639;SDS011;13497;48.322;16.204;2022-09-17T18:56:17;0.25;;;0.25;;
25639;SDS011;13497;48.322;16.204;2022-09-17T18:58:45;0.50;;;0.50;;
25639;SDS011;13497;48.322;16.204;2022-09-17T19:01:15;0.35;;;0.30;;
25639;SDS011;13497;48.322;16.204;2022-09-17T19:03:42;0.45;;;0.30;;
25639;SDS011;13497;48.322;16.204;2022-09-17T19:06:08;0.37;;;0.30;;
25639;SDS011;13497;48.322;16.204;2022-09-17T19:08:35;0.47;;;0.47;;
25639;SDS011;13497;48.322;16.204;2022-09-17T19:11:02;0.28;;;0.28;;
25639;SDS011;13497;48.322;16.204;2022-09-17T19:13:32;0.25;;;0.20;;
25639;SDS011;13497;48.322;16.204;2022-09-17T19:16:00;0.43;;;0.43;;
25639;SDS011;13497;48.322;16.204;2022-09-17T19:18:26;0.52;;;0.40;;
25639;SDS011;13497;48.322;16.204;2022-09-17T19:21:03;0.25;;;0.17;;